sensor_id;sensor_type;location;lat;lon;timestamp;P1;durP1;ratioP1;P2;durP2;ratioP2
36593;SDS011;22603;47.900;8.146;2023-04-24T00:02:30;2.77;;;0.60;;
36593;SDS011;22603;47.900;8.146;2023-04-24T00:05:19;1.17;;;0.90;;
36593;SDS011;22603;47.900;8.146;2023-04-24T00:08:05;0.93;;;0.60;;
36593;SDS011;22603;47.900;8.146;2023-04-24T00:10:52;1.33;;;0.60;;
36593;SDS011;22603;47.900;8.146;2023-04-24T00:13:39;1.10;;;0.63;;
36593;SDS011;22603;47.900;8.146;2023-04-24T00:16:26;2.47;;;0.80;;
36593;SDS011;22603;47.900;8.146;2023-04-24T00:19:13;3.70;;;0.60;;
36593;SDS011;22603;47.900;8.146;2023-04-24T00:22:01;0.50;;;0.50;;
36593;SDS011;22603;47.900;8.146;2023-04-24T00:24:48;1.03;;;0.50;;
36593;SDS011;22603;47.900;8.146;2023-04-24T00:27:35;2.03;;;0.80;;
36593;SDS011;22603;47.900;8.146;2023-04-24T00:30:23;1.67;;;0.73;;
36593;SDS011;22603;47.900;8.146;2023-04-24T00:33:10;1.13;;;0.70;;
36593;SDS011;22603;47.900;8.146;2023-04-24T00:35:57;2.43;;;0.60;;
36593;SDS011;22603;47.900;8.146;2023-04-24T00:38:45;1.47;;;0.60;;
36593;SDS011;22603;47.900;8.146;2023-04-24T00:41:32;1.33;;;0.70;;
36593;SDS011;22603;47.900;8.146;2023-04-24T00:44:19;1.53;;;0.63;;
36593;SDS011;22603;47.900;8.146;2023-04-24T00:47:07;1.30;;;0.60;;
36593;SDS011;22603;47.900;8.146;2023-04-24T00:49:54;1.57;;;0.57;;
36593;SDS011;22603;47.900;8.146;2023-04-24T00:52:41;4.80;;;0.87;;
36593;SDS011;22603;47.900;8.146;2023-04-24T00:55:29;1.23;;;0.60;;
36593;SDS011;22603;47.900;8.146;2023-04-24T00:58:17;0.93;;;0.57;;
36593;SDS011;22603;47.900;8.146;2023-04-24T01:01:04;1.00;;;0.70;;
36593;SDS011;22603;47.900;8.146;2023-04-24T01:03:52;0.60;;;0.60;;
36593;SDS011;22603;47.900;8.146;2023-04-24T01:06:40;0.67;;;0.40;;
36593;SDS011;22603;47.900;8.146;2023-04-24T01:09:29;0.50;;;0.50;;
36593;SDS011;22603;47.900;8.146;2023-04-24T01:12:18;0.50;;;0.50;;
36593;SDS011;22603;47.900;8.146;2023-04-24T01:15:05;1.47;;;0.60;;
36593;SDS011;22603;47.900;8.146;2023-04-24T01:17:53;0.60;;;0.60;;
36593;SDS011;22603;47.900;8.146;2023-04-24T01:20:41;0.40;;;0.40;;
36593;SDS011;22603;47.900;8.146;2023-04-24T01:23:31;0.40;;;0.40;;
36593;SDS011;22603;47.900;8.146;2023-04-24T01:26:18;2.57;;;0.60;;
36593;SDS011;22603;47.900;8.146;2023-04-24T01:29:06;0.97;;;0.43;;
36593;SDS011;22603;47.900;8.146;2023-04-24T01:31:53;0.60;;;0.50;;
36593;SDS011;22603;47.900;8.146;2023-04-24T01:34:43;1.33;;;0.63;;
36593;SDS011;22603;47.900;8.146;2023-04-24T01:37:31;1.13;;;0.60;;
36593;SDS011;22603;47.900;8.146;2023-04-24T01:40:19;1.50;;;0.67;;
36593;SDS011;22603;47.900;8.146;2023-04-24T01:43:06;1.83;;;0.60;;
36593;SDS011;22603;47.900;8.146;2023-04-24T01:45:53;1.27;;;0.60;;
36593;SDS011;22603;47.900;8.146;2023-04-24T01:48:40;1.60;;;0.80;;
36593;SDS011;22603;47.900;8.146;2023-04-24T01:51:27;0.60;;;0.60;;
36593;SDS011;22603;47.900;8.146;2023-04-24T01:54:15;2.73;;;0.60;;
36593;SDS011;22603;47.900;8.146;2023-04-24T01:57:03;0.53;;;0.47;;
36593;SDS011;22603;47.900;8.146;2023-04-24T01:59:50;0.53;;;0.53;;
36593;SDS011;22603;47.900;8.146;2023-04-24T02:02:37;0.83;;;0.60;;
36593;SDS011;22603;47.900;8.146;2023-04-24T02:05:26;1.13;;;0.60;;
36593;SDS011;22603;47.900;8.146;2023-04-24T02:08:13;2.37;;;0.50;;
36593;SDS011;22603;47.900;8.146;2023-04-24T02:11:00;1.27;;;0.50;;
36593;SDS011;22603;47.900;8.146;2023-04-24T02:13:48;2.27;;;0.70;;
36593;SDS011;22603;47.900;8.146;2023-04-24T02:16:36;1.30;;;0.67;;
36593;SDS011;22603;47.900;8.146;2023-04-24T02:19:23;0.73;;;0.50;;
36593;SDS011;22603;47.900;8.146;2023-04-24T02:22:10;1.07;;;0.70;;
36593;SDS011;22603;47.900;8.146;2023-04-24T02:24:57;3.60;;;0.70;;
36593;SDS011;22603;47.900;8.146;2023-04-24T02:27:44;1.00;;;0.60;;
36593;SDS011;22603;47.900;8.146;2023-04-24T02:30:33;3.07;;;0.60;;
36593;SDS011;22603;47.900;8.146;2023-04-24T02:33:20;2.20;;;0.70;;
36593;SDS011;22603;47.900;8.146;2023-04-24T02:36:07;0.80;;;0.50;;
36593;SDS011;22603;47.900;8.146;2023-04-24T02:38:53;3.37;;;0.63;;
36593;SDS011;22603;47.900;8.146;2023-04-24T02:41:40;2.43;;;0.50;;
36593;SDS011;22603;47.900;8.146;2023-04-24T02:44:28;3.00;;;0.60;;
36593;SDS011;22603;47.900;8.146;2023-04-24T02:47:16;1.63;;;0.53;;
36593;SDS011;22603;47.900;8.146;2023-04-24T02:50:03;0.87;;;0.57;;
36593;SDS011;22603;47.900;8.146;2023-04-24T02:52:51;0.53;;;0.40;;
36593;SDS011;22603;47.900;8.146;2023-04-24T02:55:37;3.63;;;0.40;;
36593;SDS011;22603;47.900;8.146;2023-04-24T02:58:24;1.67;;;0.70;;
36593;SDS011;22603;47.900;8.146;2023-04-24T03:01:11;0.60;;;0.43;;
36593;SDS011;22603;47.900;8.146;2023-04-24T03:03:59;2.20;;;0.60;;
36593;SDS011;22603;47.900;8.146;2023-04-24T03:06:47;0.63;;;0.63;;
36593;SDS011;22603;47.900;8.146;2023-04-24T03:09:34;1.20;;;0.50;;
36593;SDS011;22603;47.900;8.146;2023-04-24T03:12:20;0.50;;;0.40;;
36593;SDS011;22603;47.900;8.146;2023-04-24T03:15:09;0.37;;;0.37;;
36593;SDS011;22603;47.900;8.146;2023-04-24T03:17:56;0.50;;;0.40;;
36593;SDS011;22603;47.900;8.146;2023-04-24T03:20:46;0.40;;;0.40;;
36593;SDS011;22603;47.900;8.146;2023-04-24T03:23:34;1.17;;;0.60;;
36593;SDS011;22603;47.900;8.146;2023-04-24T03:26:20;0.30;;;0.30;;
36593;SDS011;22603;47.900;8.146;2023-04-24T03:29:07;4.13;;;0.63;;
36593;SDS011;22603;47.900;8.146;2023-04-24T03:31:54;0.60;;;0.50;;
36593;SDS011;22603;47.900;8.146;2023-04-24T03:34:41;1.77;;;0.37;;
36593;SDS011;22603;47.900;8.146;2023-04-24T03:37:29;0.30;;;0.30;;
36593;SDS011;22603;47.900;8.146;2023-04-24T03:40:16;0.63;;;0.50;;
36593;SDS011;22603;47.900;8.146;2023-04-24T03:43:03;1.10;;;0.40;;
36593;SDS011;22603;47.900;8.146;2023-04-24T03:45:49;0.60;;;0.60;;
36593;SDS011;22603;47.900;8.146;2023-04-24T03:48:37;0.50;;;0.40;;
36593;SDS011;22603;47.900;8.146;2023-04-24T03:51:23;0.33;;;0.33;;
36593;SDS011;22603;47.900;8.146;2023-04-24T03:54:14;0.80;;;0.30;;
36593;SDS011;22603;47.900;8.146;2023-04-24T03:57:01;0.57;;;0.40;;
36593;SDS011;22603;47.900;8.146;2023-04-24T03:59:48;0.53;;;0.40;;
36593;SDS011;22603;47.900;8.146;2023-04-24T04:02:35;0.30;;;0.30;;
36593;SDS011;22603;47.900;8.146;2023-04-24T04:05:22;0.77;;;0.50;;
36593;SDS011;22603;47.900;8.146;2023-04-24T04:08:09;0.60;;;0.53;;
36593;SDS011;22603;47.900;8.146;2023-04-24T04:10:58;0.73;;;0.53;;
36593;SDS011;22603;47.900;8.146;2023-04-24T04:13:46;2.07;;;0.40;;
36593;SDS011;22603;47.900;8.146;2023-04-24T04:16:33;1.07;;;0.50;;
36593;SDS011;22603;47.900;8.146;2023-04-24T04:19:22;0.40;;;0.40;;
36593;SDS011;22603;47.900;8.146;2023-04-24T04:22:09;1.13;;;0.80;;
36593;SDS011;22603;47.900;8.146;2023-04-24T04:24:56;1.67;;;0.90;;
36593;SDS011;22603;47.900;8.146;2023-04-24T04:27:44;4.93;;;1.10;;
36593;SDS011;22603;47.900;8.146;2023-04-24T04:30:33;1.03;;;0.70;;
36593;SDS011;22603;47.900;8.146;2023-04-24T04:33:20;3.17;;;1.20;;
36593;SDS011;22603;47.900;8.146;2023-04-24T04:36:07;2.13;;;1.10;;
36593;SDS011;22603;47.900;8.146;2023-04-24T04:38:55;3.27;;;1.10;;
36593;SDS011;22603;47.900;8.146;2023-04-24T04:41:44;2.23;;;1.00;;
36593;SDS011;22603;47.900;8.146;2023-04-24T04:44:35;1.83;;;1.00;;
36593;SDS011;22603;47.900;8.146;2023-04-24T04:47:23;2.93;;;1.10;;
36593;SDS011;22603;47.900;8.146;2023-04-24T04:50:11;2.50;;;1.20;;
36593;SDS011;22603;47.900;8.146;2023-04-24T04:52:58;5.10;;;1.33;;
36593;SDS011;22603;47.900;8.146;2023-04-24T04:55:45;6.50;;;1.23;;
36593;SDS011;22603;47.900;8.146;2023-04-24T04:58:33;3.10;;;1.20;;
36593;SDS011;22603;47.900;8.146;2023-04-24T05:01:21;2.67;;;0.97;;
36593;SDS011;22603;47.900;8.146;2023-04-24T05:04:09;2.17;;;1.10;;
36593;SDS011;22603;47.900;8.146;2023-04-24T05:06:57;5.50;;;1.40;;
36593;SDS011;22603;47.900;8.146;2023-04-24T05:09:44;4.67;;;1.37;;
36593;SDS011;22603;47.900;8.146;2023-04-24T05:12:31;2.93;;;1.23;;
36593;SDS011;22603;47.900;8.146;2023-04-24T05:15:17;4.80;;;1.60;;
36593;SDS011;22603;47.900;8.146;2023-04-24T05:18:06;4.90;;;1.20;;
36593;SDS011;22603;47.900;8.146;2023-04-24T05:20:54;3.77;;;1.53;;
36593;SDS011;22603;47.900;8.146;2023-04-24T05:23:41;6.13;;;2.00;;
36593;SDS011;22603;47.900;8.146;2023-04-24T05:26:28;3.27;;;1.40;;
36593;SDS011;22603;47.900;8.146;2023-04-24T05:29:15;2.77;;;1.30;;
36593;SDS011;22603;47.900;8.146;2023-04-24T05:32:04;9.10;;;1.40;;
36593;SDS011;22603;47.900;8.146;2023-04-24T05:34:52;4.37;;;1.10;;
36593;SDS011;22603;47.900;8.146;2023-04-24T05:37:40;2.27;;;1.37;;
36593;SDS011;22603;47.900;8.146;2023-04-24T05:40:26;2.07;;;1.27;;
36593;SDS011;22603;47.900;8.146;2023-04-24T05:43:13;2.10;;;1.17;;
36593;SDS011;22603;47.900;8.146;2023-04-24T05:46:00;3.83;;;1.27;;
36593;SDS011;22603;47.900;8.146;2023-04-24T05:48:48;4.20;;;1.50;;
36593;SDS011;22603;47.900;8.146;2023-04-24T05:51:36;5.37;;;1.57;;
36593;SDS011;22603;47.900;8.146;2023-04-24T05:54:24;2.27;;;1.20;;
36593;SDS011;22603;47.900;8.146;2023-04-24T05:57:11;2.00;;;1.20;;
36593;SDS011;22603;47.900;8.146;2023-04-24T05:59:58;5.23;;;1.50;;
36593;SDS011;22603;47.900;8.146;2023-04-24T06:02:45;2.97;;;1.03;;
36593;SDS011;22603;47.900;8.146;2023-04-24T06:05:32;3.17;;;1.30;;
36593;SDS011;22603;47.900;8.146;2023-04-24T06:08:21;3.03;;;1.30;;
36593;SDS011;22603;47.900;8.146;2023-04-24T06:11:08;3.40;;;1.30;;
36593;SDS011;22603;47.900;8.146;2023-04-24T06:13:55;2.20;;;1.23;;
36593;SDS011;22603;47.900;8.146;2023-04-24T06:16:42;4.83;;;1.63;;
36593;SDS011;22603;47.900;8.146;2023-04-24T06:19:29;4.93;;;1.57;;
36593;SDS011;22603;47.900;8.146;2023-04-24T06:22:15;3.27;;;1.37;;
36593;SDS011;22603;47.900;8.146;2023-04-24T06:25:04;3.70;;;1.20;;
36593;SDS011;22603;47.900;8.146;2023-04-24T06:27:52;4.30;;;1.30;;
36593;SDS011;22603;47.900;8.146;2023-04-24T06:30:39;3.63;;;1.43;;
36593;SDS011;22603;47.900;8.146;2023-04-24T06:33:25;5.63;;;1.70;;
36593;SDS011;22603;47.900;8.146;2023-04-24T06:36:12;3.80;;;1.23;;
36593;SDS011;22603;47.900;8.146;2023-04-24T06:39:00;3.50;;;1.20;;
36593;SDS011;22603;47.900;8.146;2023-04-24T06:41:48;6.60;;;1.40;;
36593;SDS011;22603;47.900;8.146;2023-04-24T06:44:35;3.20;;;1.30;;
36593;SDS011;22603;47.900;8.146;2023-04-24T06:47:26;5.13;;;1.50;;
36593;SDS011;22603;47.900;8.146;2023-04-24T06:50:13;2.77;;;1.00;;
36593;SDS011;22603;47.900;8.146;2023-04-24T06:53:00;3.90;;;1.23;;
36593;SDS011;22603;47.900;8.146;2023-04-24T06:55:46;3.00;;;1.37;;
36593;SDS011;22603;47.900;8.146;2023-04-24T06:58:35;2.80;;;1.30;;
36593;SDS011;22603;47.900;8.146;2023-04-24T07:01:22;3.20;;;1.37;;
36593;SDS011;22603;47.900;8.146;2023-04-24T07:04:09;3.67;;;1.40;;
36593;SDS011;22603;47.900;8.146;2023-04-24T07:06:57;5.10;;;1.70;;
36593;SDS011;22603;47.900;8.146;2023-04-24T07:09:44;2.83;;;1.30;;
36593;SDS011;22603;47.900;8.146;2023-04-24T07:12:31;4.83;;;1.10;;
36593;SDS011;22603;47.900;8.146;2023-04-24T07:15:19;3.47;;;1.50;;
36593;SDS011;22603;47.900;8.146;2023-04-24T07:18:06;2.67;;;1.30;;
36593;SDS011;22603;47.900;8.146;2023-04-24T07:20:55;3.10;;;1.33;;
36593;SDS011;22603;47.900;8.146;2023-04-24T07:23:42;3.90;;;1.50;;
36593;SDS011;22603;47.900;8.146;2023-04-24T07:26:30;2.70;;;1.10;;
36593;SDS011;22603;47.900;8.146;2023-04-24T07:29:17;7.03;;;1.40;;
36593;SDS011;22603;47.900;8.146;2023-04-24T07:32:06;3.47;;;1.40;;
36593;SDS011;22603;47.900;8.146;2023-04-24T07:34:54;3.70;;;1.30;;
36593;SDS011;22603;47.900;8.146;2023-04-24T07:37:41;3.57;;;1.40;;
36593;SDS011;22603;47.900;8.146;2023-04-24T07:40:30;1.10;;;0.87;;
36593;SDS011;22603;47.900;8.146;2023-04-24T07:43:17;4.00;;;1.40;;
36593;SDS011;22603;47.900;8.146;2023-04-24T07:46:06;6.40;;;1.70;;
36593;SDS011;22603;47.900;8.146;2023-04-24T07:48:55;2.97;;;1.33;;
36593;SDS011;22603;47.900;8.146;2023-04-24T07:51:56;4.50;;;1.80;;
36593;SDS011;22603;47.900;8.146;2023-04-24T07:54:45;5.00;;;1.23;;
36593;SDS011;22603;47.900;8.146;2023-04-24T07:57:32;4.20;;;1.30;;
36593;SDS011;22603;47.900;8.146;2023-04-24T08:00:19;9.20;;;1.53;;
36593;SDS011;22603;47.900;8.146;2023-04-24T08:03:06;7.07;;;1.60;;
36593;SDS011;22603;47.900;8.146;2023-04-24T08:05:55;2.73;;;1.20;;
36593;SDS011;22603;47.900;8.146;2023-04-24T08:08:42;4.30;;;1.50;;
36593;SDS011;22603;47.900;8.146;2023-04-24T08:11:29;2.30;;;1.30;;
36593;SDS011;22603;47.900;8.146;2023-04-24T08:14:16;4.20;;;1.50;;
36593;SDS011;22603;47.900;8.146;2023-04-24T08:17:03;4.90;;;1.40;;
36593;SDS011;22603;47.900;8.146;2023-04-24T08:19:50;3.93;;;1.50;;
36593;SDS011;22603;47.900;8.146;2023-04-24T08:22:39;3.33;;;1.30;;
36593;SDS011;22603;47.900;8.146;2023-04-24T08:25:26;4.53;;;1.43;;
36593;SDS011;22603;47.900;8.146;2023-04-24T08:28:14;2.70;;;1.30;;
36593;SDS011;22603;47.900;8.146;2023-04-24T08:31:05;4.70;;;1.60;;
36593;SDS011;22603;47.900;8.146;2023-04-24T08:33:52;4.23;;;1.30;;
36593;SDS011;22603;47.900;8.146;2023-04-24T08:36:39;4.20;;;1.67;;
36593;SDS011;22603;47.900;8.146;2023-04-24T08:39:32;2.30;;;1.13;;
36593;SDS011;22603;47.900;8.146;2023-04-24T08:42:20;3.60;;;1.60;;
36593;SDS011;22603;47.900;8.146;2023-04-24T08:45:08;5.33;;;1.30;;
36593;SDS011;22603;47.900;8.146;2023-04-24T08:47:56;3.00;;;1.40;;
36593;SDS011;22603;47.900;8.146;2023-04-24T08:50:44;5.33;;;1.57;;
36593;SDS011;22603;47.900;8.146;2023-04-24T08:53:31;8.30;;;1.70;;
36593;SDS011;22603;47.900;8.146;2023-04-24T08:56:20;3.87;;;1.50;;
36593;SDS011;22603;47.900;8.146;2023-04-24T08:59:08;4.77;;;1.47;;
36593;SDS011;22603;47.900;8.146;2023-04-24T09:01:56;1.83;;;1.07;;
36593;SDS011;22603;47.900;8.146;2023-04-24T09:04:43;3.60;;;1.40;;
36593;SDS011;22603;47.900;8.146;2023-04-24T09:07:32;5.00;;;1.60;;
36593;SDS011;22603;47.900;8.146;2023-04-24T09:10:23;2.10;;;1.30;;
36593;SDS011;22603;47.900;8.146;2023-04-24T09:13:12;2.43;;;1.27;;
36593;SDS011;22603;47.900;8.146;2023-04-24T09:16:00;8.57;;;1.10;;
36593;SDS011;22603;47.900;8.146;2023-04-24T09:18:47;4.30;;;1.50;;
36593;SDS011;22603;47.900;8.146;2023-04-24T09:21:34;5.63;;;1.50;;
36593;SDS011;22603;47.900;8.146;2023-04-24T09:24:21;3.27;;;1.43;;
36593;SDS011;22603;47.900;8.146;2023-04-24T09:27:10;2.63;;;1.07;;
36593;SDS011;22603;47.900;8.146;2023-04-24T09:30:00;2.37;;;1.20;;
36593;SDS011;22603;47.900;8.146;2023-04-24T09:32:47;2.43;;;1.10;;
36593;SDS011;22603;47.900;8.146;2023-04-24T09:35:34;4.43;;;1.53;;
36593;SDS011;22603;47.900;8.146;2023-04-24T09:38:26;5.33;;;1.70;;
36593;SDS011;22603;47.900;8.146;2023-04-24T09:41:17;3.40;;;1.30;;
36593;SDS011;22603;47.900;8.146;2023-04-24T09:44:10;4.30;;;1.30;;
36593;SDS011;22603;47.900;8.146;2023-04-24T09:47:00;4.60;;;1.47;;
36593;SDS011;22603;47.900;8.146;2023-04-24T09:49:47;5.77;;;1.90;;
36593;SDS011;22603;47.900;8.146;2023-04-24T09:52:34;3.13;;;1.37;;
36593;SDS011;22603;47.900;8.146;2023-04-24T09:55:21;3.63;;;1.63;;
36593;SDS011;22603;47.900;8.146;2023-04-24T09:58:08;3.87;;;1.40;;
36593;SDS011;22603;47.900;8.146;2023-04-24T10:00:55;2.20;;;1.40;;
36593;SDS011;22603;47.900;8.146;2023-04-24T10:03:44;4.57;;;1.57;;
36593;SDS011;22603;47.900;8.146;2023-04-24T10:06:33;5.37;;;1.63;;
36593;SDS011;22603;47.900;8.146;2023-04-24T10:09:21;4.83;;;1.30;;
36593;SDS011;22603;47.900;8.146;2023-04-24T10:12:09;7.23;;;1.70;;
36593;SDS011;22603;47.900;8.146;2023-04-24T10:14:56;2.73;;;1.40;;
36593;SDS011;22603;47.900;8.146;2023-04-24T10:17:44;3.17;;;1.43;;
36593;SDS011;22603;47.900;8.146;2023-04-24T10:20:39;2.43;;;1.30;;
36593;SDS011;22603;47.900;8.146;2023-04-24T10:23:26;2.70;;;1.40;;
36593;SDS011;22603;47.900;8.146;2023-04-24T10:26:13;2.87;;;1.40;;
36593;SDS011;22603;47.900;8.146;2023-04-24T10:29:03;4.67;;;1.33;;
36593;SDS011;22603;47.900;8.146;2023-04-24T10:31:54;4.90;;;1.80;;
36593;SDS011;22603;47.900;8.146;2023-04-24T10:34:41;3.17;;;1.37;;
36593;SDS011;22603;47.900;8.146;2023-04-24T10:37:30;3.80;;;1.10;;
36593;SDS011;22603;47.900;8.146;2023-04-24T10:40:25;4.23;;;1.57;;
36593;SDS011;22603;47.900;8.146;2023-04-24T10:43:13;2.20;;;1.27;;
36593;SDS011;22603;47.900;8.146;2023-04-24T10:46:05;4.23;;;1.40;;
36593;SDS011;22603;47.900;8.146;2023-04-24T10:48:53;3.97;;;1.60;;
36593;SDS011;22603;47.900;8.146;2023-04-24T10:51:47;8.80;;;1.33;;
36593;SDS011;22603;47.900;8.146;2023-04-24T10:54:41;3.23;;;1.30;;
36593;SDS011;22603;47.900;8.146;2023-04-24T10:57:30;2.47;;;1.57;;
36593;SDS011;22603;47.900;8.146;2023-04-24T11:00:21;2.53;;;1.10;;
36593;SDS011;22603;47.900;8.146;2023-04-24T11:03:22;3.87;;;1.10;;
36593;SDS011;22603;47.900;8.146;2023-04-24T11:06:10;3.00;;;1.23;;
36593;SDS011;22603;47.900;8.146;2023-04-24T11:09:02;3.37;;;1.57;;
36593;SDS011;22603;47.900;8.146;2023-04-24T11:11:53;3.17;;;1.23;;
36593;SDS011;22603;47.900;8.146;2023-04-24T11:15:00;2.13;;;1.10;;
36593;SDS011;22603;47.900;8.146;2023-04-24T11:17:48;5.17;;;1.50;;
36593;SDS011;22603;47.900;8.146;2023-04-24T11:20:36;2.53;;;1.10;;
36593;SDS011;22603;47.900;8.146;2023-04-24T11:23:27;2.57;;;1.20;;
36593;SDS011;22603;47.900;8.146;2023-04-24T11:26:22;2.07;;;1.10;;
36593;SDS011;22603;47.900;8.146;2023-04-24T11:29:16;1.80;;;1.10;;
36593;SDS011;22603;47.900;8.146;2023-04-24T11:32:17;1.80;;;0.90;;
36593;SDS011;22603;47.900;8.146;2023-04-24T11:35:06;3.80;;;1.43;;
36593;SDS011;22603;47.900;8.146;2023-04-24T11:37:55;4.30;;;1.17;;
36593;SDS011;22603;47.900;8.146;2023-04-24T11:40:45;4.73;;;1.27;;
36593;SDS011;22603;47.900;8.146;2023-04-24T11:43:34;4.43;;;1.30;;
36593;SDS011;22603;47.900;8.146;2023-04-24T11:46:26;4.37;;;1.80;;
36593;SDS011;22603;47.900;8.146;2023-04-24T11:49:14;2.27;;;1.10;;
36593;SDS011;22603;47.900;8.146;2023-04-24T11:52:01;5.50;;;1.37;;
36593;SDS011;22603;47.900;8.146;2023-04-24T11:54:48;4.10;;;1.30;;
36593;SDS011;22603;47.900;8.146;2023-04-24T11:57:36;2.67;;;1.47;;
36593;SDS011;22603;47.900;8.146;2023-04-24T12:00:23;3.80;;;1.07;;
36593;SDS011;22603;47.900;8.146;2023-04-24T12:03:12;4.07;;;1.37;;
36593;SDS011;22603;47.900;8.146;2023-04-24T12:06:07;1.93;;;0.90;;
36593;SDS011;22603;47.900;8.146;2023-04-24T12:08:55;3.17;;;1.43;;
36593;SDS011;22603;47.900;8.146;2023-04-24T12:11:55;2.57;;;1.27;;
36593;SDS011;22603;47.900;8.146;2023-04-24T12:14:43;3.67;;;1.40;;
36593;SDS011;22603;47.900;8.146;2023-04-24T12:17:31;3.80;;;1.50;;
36593;SDS011;22603;47.900;8.146;2023-04-24T12:20:24;3.13;;;1.10;;
36593;SDS011;22603;47.900;8.146;2023-04-24T12:23:12;3.73;;;1.20;;
36593;SDS011;22603;47.900;8.146;2023-04-24T12:25:59;5.77;;;1.40;;
36593;SDS011;22603;47.900;8.146;2023-04-24T12:28:49;6.23;;;1.40;;
36593;SDS011;22603;47.900;8.146;2023-04-24T12:31:36;2.97;;;1.30;;
36593;SDS011;22603;47.900;8.146;2023-04-24T12:34:24;5.37;;;1.37;;
36593;SDS011;22603;47.900;8.146;2023-04-24T12:37:13;3.23;;;1.13;;
36593;SDS011;22603;47.900;8.146;2023-04-24T12:40:00;2.73;;;1.33;;
36593;SDS011;22603;47.900;8.146;2023-04-24T12:42:49;2.83;;;1.30;;
36593;SDS011;22603;47.900;8.146;2023-04-24T12:45:36;3.47;;;1.20;;
36593;SDS011;22603;47.900;8.146;2023-04-24T12:48:23;5.97;;;1.63;;
36593;SDS011;22603;47.900;8.146;2023-04-24T12:51:10;2.83;;;1.10;;
36593;SDS011;22603;47.900;8.146;2023-04-24T12:53:58;2.60;;;1.20;;
36593;SDS011;22603;47.900;8.146;2023-04-24T12:56:45;4.47;;;1.40;;
36593;SDS011;22603;47.900;8.146;2023-04-24T12:59:32;4.80;;;1.43;;
36593;SDS011;22603;47.900;8.146;2023-04-24T13:02:18;4.00;;;1.50;;
36593;SDS011;22603;47.900;8.146;2023-04-24T13:05:07;8.23;;;1.60;;
36593;SDS011;22603;47.900;8.146;2023-04-24T13:07:56;3.77;;;1.30;;
36593;SDS011;22603;47.900;8.146;2023-04-24T13:10:45;3.30;;;1.37;;
36593;SDS011;22603;47.900;8.146;2023-04-24T13:13:32;2.30;;;1.07;;
36593;SDS011;22603;47.900;8.146;2023-04-24T13:16:19;3.70;;;1.20;;
36593;SDS011;22603;47.900;8.146;2023-04-24T13:19:08;8.37;;;1.90;;
36593;SDS011;22603;47.900;8.146;2023-04-24T13:21:56;4.73;;;1.50;;
36593;SDS011;22603;47.900;8.146;2023-04-24T13:24:44;2.70;;;1.33;;
36593;SDS011;22603;47.900;8.146;2023-04-24T13:27:34;3.87;;;1.67;;
36593;SDS011;22603;47.900;8.146;2023-04-24T13:30:21;2.73;;;1.30;;
36593;SDS011;22603;47.900;8.146;2023-04-24T13:33:08;6.30;;;1.50;;
36593;SDS011;22603;47.900;8.146;2023-04-24T13:35:55;3.63;;;1.60;;
36593;SDS011;22603;47.900;8.146;2023-04-24T13:38:42;4.63;;;1.43;;
36593;SDS011;22603;47.900;8.146;2023-04-24T13:41:29;3.17;;;1.40;;
36593;SDS011;22603;47.900;8.146;2023-04-24T13:44:18;3.17;;;1.67;;
36593;SDS011;22603;47.900;8.146;2023-04-24T13:47:06;3.50;;;1.60;;
36593;SDS011;22603;47.900;8.146;2023-04-24T13:49:53;1.90;;;1.07;;
36593;SDS011;22603;47.900;8.146;2023-04-24T13:52:40;3.83;;;1.43;;
36593;SDS011;22603;47.900;8.146;2023-04-24T13:55:26;3.57;;;1.47;;
36593;SDS011;22603;47.900;8.146;2023-04-24T13:58:13;4.37;;;1.60;;
36593;SDS011;22603;47.900;8.146;2023-04-24T14:01:02;3.43;;;1.40;;
36593;SDS011;22603;47.900;8.146;2023-04-24T14:03:49;2.90;;;1.40;;
36593;SDS011;22603;47.900;8.146;2023-04-24T14:06:37;3.47;;;1.47;;
36593;SDS011;22603;47.900;8.146;2023-04-24T14:09:23;3.80;;;1.57;;
36593;SDS011;22603;47.900;8.146;2023-04-24T14:12:10;2.73;;;1.40;;
36593;SDS011;22603;47.900;8.146;2023-04-24T14:14:57;5.17;;;1.80;;
36593;SDS011;22603;47.900;8.146;2023-04-24T14:17:46;4.13;;;1.57;;
36593;SDS011;22603;47.900;8.146;2023-04-24T14:20:33;4.13;;;1.43;;
36593;SDS011;22603;47.900;8.146;2023-04-24T14:23:20;3.30;;;1.40;;
36593;SDS011;22603;47.900;8.146;2023-04-24T14:26:07;5.10;;;1.50;;
36593;SDS011;22603;47.900;8.146;2023-04-24T14:28:54;5.07;;;1.60;;
36593;SDS011;22603;47.900;8.146;2023-04-24T14:31:58;4.33;;;1.60;;
36593;SDS011;22603;47.900;8.146;2023-04-24T14:34:46;3.40;;;1.57;;
36593;SDS011;22603;47.900;8.146;2023-04-24T14:37:33;2.30;;;1.23;;
36593;SDS011;22603;47.900;8.146;2023-04-24T14:40:21;3.13;;;1.17;;
36593;SDS011;22603;47.900;8.146;2023-04-24T14:43:28;2.87;;;1.40;;
36593;SDS011;22603;47.900;8.146;2023-04-24T14:46:15;3.33;;;1.50;;
36593;SDS011;22603;47.900;8.146;2023-04-24T14:49:02;5.17;;;1.53;;
36593;SDS011;22603;47.900;8.146;2023-04-24T14:51:51;6.33;;;1.47;;
36593;SDS011;22603;47.900;8.146;2023-04-24T14:54:38;5.00;;;1.40;;
36593;SDS011;22603;47.900;8.146;2023-04-24T14:57:25;3.83;;;1.60;;
36593;SDS011;22603;47.900;8.146;2023-04-24T15:00:13;3.20;;;1.50;;
36593;SDS011;22603;47.900;8.146;2023-04-24T15:03:02;6.53;;;1.50;;
36593;SDS011;22603;47.900;8.146;2023-04-24T15:05:50;3.03;;;1.33;;
36593;SDS011;22603;47.900;8.146;2023-04-24T15:08:38;4.00;;;1.17;;
36593;SDS011;22603;47.900;8.146;2023-04-24T15:11:26;3.53;;;1.37;;
36593;SDS011;22603;47.900;8.146;2023-04-24T15:14:13;2.30;;;1.40;;
36593;SDS011;22603;47.900;8.146;2023-04-24T15:17:01;2.13;;;1.30;;
36593;SDS011;22603;47.900;8.146;2023-04-24T15:19:48;5.87;;;1.47;;
36593;SDS011;22603;47.900;8.146;2023-04-24T15:22:35;4.23;;;1.53;;
36593;SDS011;22603;47.900;8.146;2023-04-24T15:25:24;5.23;;;1.90;;
36593;SDS011;22603;47.900;8.146;2023-04-24T15:28:11;4.47;;;1.70;;
36593;SDS011;22603;47.900;8.146;2023-04-24T15:30:58;5.10;;;1.60;;
36593;SDS011;22603;47.900;8.146;2023-04-24T15:33:45;6.17;;;1.60;;
36593;SDS011;22603;47.900;8.146;2023-04-24T15:36:34;3.53;;;1.40;;
36593;SDS011;22603;47.900;8.146;2023-04-24T15:39:22;5.63;;;1.97;;
36593;SDS011;22603;47.900;8.146;2023-04-24T15:42:11;4.93;;;1.60;;
36593;SDS011;22603;47.900;8.146;2023-04-24T15:44:57;5.17;;;1.50;;
36593;SDS011;22603;47.900;8.146;2023-04-24T15:47:44;4.57;;;1.63;;
36593;SDS011;22603;47.900;8.146;2023-04-24T15:50:32;5.23;;;1.50;;
36593;SDS011;22603;47.900;8.146;2023-04-24T15:53:18;6.70;;;1.80;;
36593;SDS011;22603;47.900;8.146;2023-04-24T15:56:07;5.43;;;1.70;;
36593;SDS011;22603;47.900;8.146;2023-04-24T15:58:56;4.90;;;1.57;;
36593;SDS011;22603;47.900;8.146;2023-04-24T16:01:45;2.90;;;1.47;;
36593;SDS011;22603;47.900;8.146;2023-04-24T16:04:32;6.47;;;1.47;;
36593;SDS011;22603;47.900;8.146;2023-04-24T16:07:19;5.87;;;1.80;;
36593;SDS011;22603;47.900;8.146;2023-04-24T16:10:07;5.97;;;1.70;;
36593;SDS011;22603;47.900;8.146;2023-04-24T16:12:54;4.07;;;1.67;;
36593;SDS011;22603;47.900;8.146;2023-04-24T16:15:43;4.63;;;1.87;;
36593;SDS011;22603;47.900;8.146;2023-04-24T16:18:31;6.77;;;1.90;;
36593;SDS011;22603;47.900;8.146;2023-04-24T16:21:18;3.40;;;1.67;;
36593;SDS011;22603;47.900;8.146;2023-04-24T16:24:05;2.97;;;1.40;;
36593;SDS011;22603;47.900;8.146;2023-04-24T16:26:53;5.20;;;1.60;;
36593;SDS011;22603;47.900;8.146;2023-04-24T16:29:41;9.00;;;1.97;;
36593;SDS011;22603;47.900;8.146;2023-04-24T16:32:29;3.70;;;1.60;;
36593;SDS011;22603;47.900;8.146;2023-04-24T16:35:16;7.13;;;1.73;;
36593;SDS011;22603;47.900;8.146;2023-04-24T16:38:03;5.10;;;1.70;;
36593;SDS011;22603;47.900;8.146;2023-04-24T16:40:49;3.40;;;1.60;;
36593;SDS011;22603;47.900;8.146;2023-04-24T16:43:37;4.70;;;1.60;;
36593;SDS011;22603;47.900;8.146;2023-04-24T16:46:23;3.53;;;1.40;;
36593;SDS011;22603;47.900;8.146;2023-04-24T16:49:12;2.93;;;1.43;;
36593;SDS011;22603;47.900;8.146;2023-04-24T16:51:59;5.03;;;1.47;;
36593;SDS011;22603;47.900;8.146;2023-04-24T16:54:46;4.67;;;1.80;;